Johnston, IA

8:26 PM CDT on September 17, 2014 (GMT -0500)
Cross Creek West | Change Station
CLOSE
Current Station
Personal Weather Station
Location: Urbandale, IA
Elevation: 951 ft
Nearby Weather Stations

Elev 951 ft 41.64 °N, 93.74 °W | Updated 3 seconds ago

Clear
Clear
59.5 °F
Feels Like 59.5 °F
N
0.0
Wind Variable Wind from SE
Gusts 0.0 mph

Today
High -- | Low -- °F
--% Chance of Precip.
Yesterday
High -- | Low -- °F
Precip. -- in
6:57 AM 7:20 PM
Waning Crescent, 31% visible
Pressure 29.95 in
Visibility 10.0 miles
Clouds Clear
Dew Point 33 °F
Humidity 36%
Rainfall 0.00 in
Snow Depth Not available.
UV 0 out of 12
Pollen 5.90 out of 12
Ozone Good
PM2.5 Good
Flu Activity Not available.
METAR KIKV 180115Z AUTO 00000KT 10SM CLR 17/15 A2995 RMK AO2

More Conditions Fewer Conditions

Pressure 29.95 in
Visibility 10.0 miles
Clouds Clear
Dew Point 33 °F
Humidity 36%
Rainfall 0.00 in
Snow Depth Not available.
UV 0 out of 12
Pollen 5.90 out of 12
Ozone Good
PM2.5 Good
Flu Activity Not available.
METAR KIKV 180115Z AUTO 00000KT 10SM CLR 17/15 A2995 RMK AO2

More Conditions Fewer Conditions

10-Day Weather Forecast

Almanac

Astronomy

Sep. 17, 2014 Rise Set
Actual Time 6:57 AM CDT 7:20 PM CDT
Civil Twilight 6:29 AM CDT 7:48 PM CDT
Nautical Twilight 5:56 AM CDT 8:21 PM CDT
Astronomical Twilight 5:22 AM CDT 8:54 PM CDT
Moon 12:54 AM CDT (9/17) 3:34 PM CDT (9/17)
Length of Visible Light 13h 19m
Length of Day
12h 23m
Tomorrow will be 2m 45s shorter.
Waning Crescent, 31% of the Moon is Illuminated
Today
Waning Crescent
Sep 24
New
Oct 1
First Quarter
Oct 8
Full
Oct 15
Last Quarter

Today's Extremes

State Highs State Lows

Community

WunderPhotos

Upload Photos

1,754,245 photos uploaded!

Nearby

Air Quality

  Air Quality AQ Index Pollutant
Yesterday Good
OZONE
Yesterday Good
PM2.5
Current Good
OZONE
Current Good
PM2.5
Wednesday Good
OZONE
Wednesday Good
PM2.5
Wednesday Good
CO
Wednesday Good
NO2
Thursday Good
OZONE
Thursday Good
PM2.5
Thursday Good
CO
Thursday Good
NO2

Snow Depth

Station Depth Elevation
No new snow has been reported.

Earthquake Activity

City Distance Mag. Time & Date
No recent earthquake activity has been reported nearby.
Minimum magnitude displayed is 2.5.

Coastal Water Temperatures

Place Temperature
No Stations Reporting

Nearby Weather Stations